Colcord, West Virginia
Current Conditions -  °F | °C
As of 5:51 AM on Monday 20 Oct 2014 (Local Time) from KBKW Reporting Station
Clear Clear  
Wind Chill: 30°   Ceiling: Unl
Heat Index: 36°   Visibility: 10mi
Dew Point: 32°   Wind: 7mph
Humidity: 86%   Direction: 170°S
Pressure: 30.07"   Gusts: NA
Location:  37.95°N, 81.44°W
Report Text: KBKW 200951Z AUTO 17006KT 10SM CLR 02/00 A3007 RMK AO2 SLP192 T00220000 TSNO
Loading
Personal Weather Stations






























Interactive Weather Map
Tropical Storm Tracking
New forecast layout! Learn more

10-Day Weather Forecast

Advertisements
Track Severe Weather on mobile